Terminal Aerodrome Forecast
Issued by NWS

Home | Current Version | Previous Version | Text Only | Print | Product List | Glossary On
Versions: 1 2 3 4 5 6 7 8 9 10 11 12 13 14 15 16 17 18 19
000
FTUS43 KDTX 222320
TAFDET
TAF
KDET 222320Z 2300/2324 10008KT P6SM SCT040 BKN100
     FM230400 10008KT P6SM BKN040 OVC060
     FM230900 13009KT 3SM -RA BR OVC012
      TEMPO 2312/2314 2SM -RA BR OVC008
     FM231600 16008KT 5SM BR OVC010=

USA.gov is the U.S. government's official web portal to all federal, state and local government web resources and services.